sensor_id;sensor_type;location;lat;lon;timestamp;noise_LAeq;noise_LA_min;noise_LA_max;noise_LA01;noise_LA95
77133;Laerm;26708;50.304;19.028;2023-03-01T00:00:07;41.48;37.69;45.70;;
77133;Laerm;26708;50.304;19.028;2023-03-01T00:02:19;41.62;38.00;48.23;;
77133;Laerm;26708;50.304;19.028;2023-03-01T00:04:24;41.57;38.39;46.23;;
77133;Laerm;26708;50.304;19.028;2023-03-01T00:06:29;43.22;38.57;52.43;;
77133;Laerm;26708;50.304;19.028;2023-03-01T00:08:34;53.45;38.12;72.50;;
77133;Laerm;26708;50.304;19.028;2023-03-01T00:10:39;41.89;38.62;46.87;;
77133;Laerm;26708;50.304;19.028;2023-03-01T00:12:44;42.30;38.33;51.14;;
77133;Laerm;26708;50.304;19.028;2023-03-01T00:14:49;41.83;38.21;46.90;;
77133;Laerm;26708;50.304;19.028;2023-03-01T00:16:54;49.95;38.45;67.45;;
77133;Laerm;26708;50.304;19.028;2023-03-01T00:19:02;42.37;38.61;53.50;;
77133;Laerm;26708;50.304;19.028;2023-03-01T00:21:07;41.56;38.23;46.27;;
77133;Laerm;26708;50.304;19.028;2023-03-01T00:23:14;41.80;38.04;47.24;;
77133;Laerm;26708;50.304;19.028;2023-03-01T00:25:19;41.31;38.32;46.09;;
77133;Laerm;26708;50.304;19.028;2023-03-01T00:27:24;42.36;38.51;49.14;;
77133;Laerm;26708;50.304;19.028;2023-03-01T00:29:28;41.71;38.15;46.72;;
77133;Laerm;26708;50.304;19.028;2023-03-01T00:31:33;41.50;38.04;46.80;;
77133;Laerm;26708;50.304;19.028;2023-03-01T00:33:39;42.19;37.93;48.08;;
77133;Laerm;26708;50.304;19.028;2023-03-01T00:35:46;41.69;38.47;47.45;;
77133;Laerm;26708;50.304;19.028;2023-03-01T00:37:51;41.71;38.42;46.43;;
77133;Laerm;26708;50.304;19.028;2023-03-01T00:40:00;41.72;38.17;46.84;;
77133;Laerm;26708;50.304;19.028;2023-03-01T00:42:07;41.95;38.53;46.19;;
77133;Laerm;26708;50.304;19.028;2023-03-01T00:44:12;43.16;38.36;51.96;;
77133;Laerm;26708;50.304;19.028;2023-03-01T00:46:20;41.82;38.69;46.56;;
77133;Laerm;26708;50.304;19.028;2023-03-01T00:48:25;41.98;38.65;47.36;;
77133;Laerm;26708;50.304;19.028;2023-03-01T00:50:29;42.24;38.45;49.93;;
77133;Laerm;26708;50.304;19.028;2023-03-01T00:52:38;41.44;38.06;46.12;;
77133;Laerm;26708;50.304;19.028;2023-03-01T00:54:42;41.37;37.92;46.85;;
77133;Laerm;26708;50.304;19.028;2023-03-01T00:56:47;45.08;39.33;49.15;;
77133;Laerm;26708;50.304;19.028;2023-03-01T00:58:55;43.11;39.32;48.37;;
77133;Laerm;26708;50.304;19.028;2023-03-01T01:01:00;51.88;38.48;68.70;;
77133;Laerm;26708;50.304;19.028;2023-03-01T01:03:05;41.51;37.96;46.23;;
77133;Laerm;26708;50.304;19.028;2023-03-01T01:05:11;41.82;37.78;48.22;;
77133;Laerm;26708;50.304;19.028;2023-03-01T01:07:16;41.88;38.66;46.19;;
77133;Laerm;26708;50.304;19.028;2023-03-01T01:09:29;41.68;37.78;46.44;;
77133;Laerm;26708;50.304;19.028;2023-03-01T01:11:36;48.86;38.12;65.51;;
77133;Laerm;26708;50.304;19.028;2023-03-01T01:13:43;42.07;38.12;47.20;;
77133;Laerm;26708;50.304;19.028;2023-03-01T01:15:48;41.80;38.45;48.05;;
77133;Laerm;26708;50.304;19.028;2023-03-01T01:17:55;42.52;38.61;47.28;;
77133;Laerm;26708;50.304;19.028;2023-03-01T01:19:59;41.96;38.45;46.71;;
77133;Laerm;26708;50.304;19.028;2023-03-01T01:22:05;42.91;38.68;49.42;;
77133;Laerm;26708;50.304;19.028;2023-03-01T01:24:11;47.32;39.45;57.04;;
77133;Laerm;26708;50.304;19.028;2023-03-01T01:26:21;42.69;38.99;49.95;;
77133;Laerm;26708;50.304;19.028;2023-03-01T01:28:26;42.02;38.50;46.67;;
77133;Laerm;26708;50.304;19.028;2023-03-01T01:30:31;41.70;37.80;47.33;;
77133;Laerm;26708;50.304;19.028;2023-03-01T01:32:36;42.53;38.17;50.97;;
77133;Laerm;26708;50.304;19.028;2023-03-01T01:34:41;41.81;38.31;46.86;;
77133;Laerm;26708;50.304;19.028;2023-03-01T01:36:49;42.89;38.06;50.79;;
77133;Laerm;26708;50.304;19.028;2023-03-01T01:38:55;41.77;38.39;46.87;;
77133;Laerm;26708;50.304;19.028;2023-03-01T01:41:00;42.39;38.62;49.37;;
77133;Laerm;26708;50.304;19.028;2023-03-01T01:43:19;42.18;38.12;48.53;;
77133;Laerm;26708;50.304;19.028;2023-03-01T01:45:30;41.58;38.48;46.81;;
77133;Laerm;26708;50.304;19.028;2023-03-01T01:47:35;43.02;38.73;55.26;;
77133;Laerm;26708;50.304;19.028;2023-03-01T01:49:46;42.70;39.11;46.70;;
77133;Laerm;26708;50.304;19.028;2023-03-01T01:52:04;42.07;38.62;45.92;;
77133;Laerm;26708;50.304;19.028;2023-03-01T01:54:18;41.53;38.64;46.20;;
77133;Laerm;26708;50.304;19.028;2023-03-01T01:56:28;41.59;38.05;46.58;;
77133;Laerm;26708;50.304;19.028;2023-03-01T01:58:38;41.94;38.57;46.65;;
77133;Laerm;26708;50.304;19.028;2023-03-01T02:00:44;42.48;38.88;49.04;;
77133;Laerm;26708;50.304;19.028;2023-03-01T02:02:56;42.53;38.28;51.97;;
77133;Laerm;26708;50.304;19.028;2023-03-01T02:05:12;41.51;38.24;48.56;;
77133;Laerm;26708;50.304;19.028;2023-03-01T02:07:22;48.83;39.14;61.18;;
77133;Laerm;26708;50.304;19.028;2023-03-01T02:09:29;42.49;39.00;48.77;;
77133;Laerm;26708;50.304;19.028;2023-03-01T02:11:37;42.09;38.68;49.41;;
77133;Laerm;26708;50.304;19.028;2023-03-01T02:13:47;41.69;38.14;46.23;;
77133;Laerm;26708;50.304;19.028;2023-03-01T02:15:53;41.32;38.22;46.00;;
77133;Laerm;26708;50.304;19.028;2023-03-01T02:17:58;41.67;38.49;47.47;;
77133;Laerm;26708;50.304;19.028;2023-03-01T02:20:21;42.22;38.27;48.74;;
77133;Laerm;26708;50.304;19.028;2023-03-01T02:22:31;41.59;38.46;46.03;;
77133;Laerm;26708;50.304;19.028;2023-03-01T02:25:02;41.58;37.42;46.38;;
77133;Laerm;26708;50.304;19.028;2023-03-01T02:27:13;42.79;38.82;47.98;;
77133;Laerm;26708;50.304;19.028;2023-03-01T02:29:21;45.92;38.79;57.82;;
77133;Laerm;26708;50.304;19.028;2023-03-01T02:31:27;41.83;38.21;46.49;;
77133;Laerm;26708;50.304;19.028;2023-03-01T02:33:45;41.98;38.03;46.95;;
77133;Laerm;26708;50.304;19.028;2023-03-01T02:35:54;41.27;38.22;46.09;;
77133;Laerm;26708;50.304;19.028;2023-03-01T02:38:02;42.01;38.39;54.92;;
77133;Laerm;26708;50.304;19.028;2023-03-01T02:40:14;42.91;38.09;54.66;;
77133;Laerm;26708;50.304;19.028;2023-03-01T02:42:27;41.68;38.73;46.61;;
77133;Laerm;26708;50.304;19.028;2023-03-01T02:44:38;41.79;38.75;46.65;;
77133;Laerm;26708;50.304;19.028;2023-03-01T02:46:49;41.60;38.15;46.68;;
77133;Laerm;26708;50.304;19.028;2023-03-01T02:48:57;41.61;38.15;45.86;;
77133;Laerm;26708;50.304;19.028;2023-03-01T02:51:17;42.02;38.55;49.29;;
77133;Laerm;26708;50.304;19.028;2023-03-01T02:53:41;42.02;38.30;47.70;;
77133;Laerm;26708;50.304;19.028;2023-03-01T02:55:50;43.77;38.51;53.38;;
77133;Laerm;26708;50.304;19.028;2023-03-01T02:57:56;50.90;38.85;68.31;;
77133;Laerm;26708;50.304;19.028;2023-03-01T03:00:11;42.29;38.94;49.28;;
77133;Laerm;26708;50.304;19.028;2023-03-01T03:02:25;41.43;38.43;47.96;;
77133;Laerm;26708;50.304;19.028;2023-03-01T03:04:53;48.45;37.97;66.68;;
77133;Laerm;26708;50.304;19.028;2023-03-01T03:06:58;43.11;38.90;55.00;;
77133;Laerm;26708;50.304;19.028;2023-03-01T03:09:03;41.33;38.66;45.02;;
77133;Laerm;26708;50.304;19.028;2023-03-01T03:11:10;41.70;38.32;45.47;;
77133;Laerm;26708;50.304;19.028;2023-03-01T03:13:15;43.23;39.26;49.29;;
77133;Laerm;26708;50.304;19.028;2023-03-01T03:15:24;41.57;38.16;46.14;;
77133;Laerm;26708;50.304;19.028;2023-03-01T03:17:31;52.11;38.52;69.67;;
77133;Laerm;26708;50.304;19.028;2023-03-01T03:19:36;42.97;38.67;54.70;;
77133;Laerm;26708;50.304;19.028;2023-03-01T03:21:40;53.31;39.19;71.63;;
77133;Laerm;26708;50.304;19.028;2023-03-01T03:23:45;41.77;39.04;48.35;;
77133;Laerm;26708;50.304;19.028;2023-03-01T03:25:50;41.66;38.40;49.73;;
77133;Laerm;26708;50.304;19.028;2023-03-01T03:27:57;41.87;38.67;47.66;;
77133;Laerm;26708;50.304;19.028;2023-03-01T03:30:03;41.96;39.08;47.91;;
77133;Laerm;26708;50.304;19.028;2023-03-01T03:32:12;42.73;38.82;49.16;;
77133;Laerm;26708;50.304;19.028;2023-03-01T03:34:17;42.08;38.58;49.50;;
77133;Laerm;26708;50.304;19.028;2023-03-01T03:36:24;43.18;38.40;50.77;;
77133;Laerm;26708;50.304;19.028;2023-03-01T03:38:29;45.44;41.08;50.73;;
77133;Laerm;26708;50.304;19.028;2023-03-01T03:40:37;46.84;39.92;56.35;;
77133;Laerm;26708;50.304;19.028;2023-03-01T03:42:43;49.07;38.86;65.71;;
77133;Laerm;26708;50.304;19.028;2023-03-01T03:44:48;54.68;38.92;69.63;;
77133;Laerm;26708;50.304;19.028;2023-03-01T03:46:52;42.80;39.22;49.24;;
77133;Laerm;26708;50.304;19.028;2023-03-01T03:49:00;43.55;38.92;53.20;;
77133;Laerm;26708;50.304;19.028;2023-03-01T03:51:05;44.92;38.87;64.67;;
77133;Laerm;26708;50.304;19.028;2023-03-01T03:53:12;57.22;39.80;72.49;;
77133;Laerm;26708;50.304;19.028;2023-03-01T03:55:17;56.24;39.56;72.14;;
77133;Laerm;26708;50.304;19.028;2023-03-01T03:57:22;44.81;39.15;56.59;;
77133;Laerm;26708;50.304;19.028;2023-03-01T03:59:27;47.75;40.04;64.30;;
77133;Laerm;26708;50.304;19.028;2023-03-01T04:01:33;43.74;39.69;49.87;;
77133;Laerm;26708;50.304;19.028;2023-03-01T04:03:40;43.80;39.42;51.26;;
77133;Laerm;26708;50.304;19.028;2023-03-01T04:05:52;43.40;39.23;49.84;;
77133;Laerm;26708;50.304;19.028;2023-03-01T04:08:15;48.79;39.23;69.51;;
77133;Laerm;26708;50.304;19.028;2023-03-01T04:10:21;45.31;38.68;56.84;;
77133;Laerm;26708;50.304;19.028;2023-03-01T04:12:26;49.16;39.69;65.90;;
77133;Laerm;26708;50.304;19.028;2023-03-01T04:14:31;43.57;39.99;50.50;;
77133;Laerm;26708;50.304;19.028;2023-03-01T04:16:35;43.88;39.88;49.28;;
77133;Laerm;26708;50.304;19.028;2023-03-01T04:18:40;44.45;40.01;58.01;;
77133;Laerm;26708;50.304;19.028;2023-03-01T04:20:46;50.73;39.73;66.83;;
77133;Laerm;26708;50.304;19.028;2023-03-01T04:22:59;47.68;40.62;61.62;;
77133;Laerm;26708;50.304;19.028;2023-03-01T04:25:12;56.59;40.82;71.94;;
77133;Laerm;26708;50.304;19.028;2023-03-01T04:27:17;52.82;40.39;69.20;;
77133;Laerm;26708;50.304;19.028;2023-03-01T04:29:22;52.33;41.46;68.49;;
77133;Laerm;26708;50.304;19.028;2023-03-01T04:31:26;48.98;41.21;62.80;;
77133;Laerm;26708;50.304;19.028;2023-03-01T04:33:32;53.40;41.48;70.77;;
77133;Laerm;26708;50.304;19.028;2023-03-01T04:35:37;45.42;40.49;57.00;;
77133;Laerm;26708;50.304;19.028;2023-03-01T04:37:42;46.00;40.06;57.00;;
77133;Laerm;26708;50.304;19.028;2023-03-01T04:39:50;45.99;41.03;57.28;;
77133;Laerm;26708;50.304;19.028;2023-03-01T04:41:55;46.14;40.96;54.44;;
77133;Laerm;26708;50.304;19.028;2023-03-01T04:43:59;48.91;40.91;62.70;;
77133;Laerm;26708;50.304;19.028;2023-03-01T04:46:08;45.65;40.80;54.36;;
77133;Laerm;26708;50.304;19.028;2023-03-01T04:48:14;52.32;40.47;64.86;;
77133;Laerm;26708;50.304;19.028;2023-03-01T04:50:20;54.95;41.32;71.20;;
77133;Laerm;26708;50.304;19.028;2023-03-01T04:52:25;49.48;40.76;63.98;;
77133;Laerm;26708;50.304;19.028;2023-03-01T04:54:31;45.11;40.62;57.02;;
77133;Laerm;26708;50.304;19.028;2023-03-01T04:56:39;55.59;40.45;73.44;;
77133;Laerm;26708;50.304;19.028;2023-03-01T04:58:45;52.01;43.66;66.81;;
77133;Laerm;26708;50.304;19.028;2023-03-01T05:00:50;54.17;42.78;68.96;;
77133;Laerm;26708;50.304;19.028;2023-03-01T05:02:58;49.20;40.75;64.95;;
77133;Laerm;26708;50.304;19.028;2023-03-01T05:05:05;53.22;40.69;68.97;;
77133;Laerm;26708;50.304;19.028;2023-03-01T05:07:10;51.45;40.78;68.85;;
77133;Laerm;26708;50.304;19.028;2023-03-01T05:09:20;52.33;40.68;68.98;;
77133;Laerm;26708;50.304;19.028;2023-03-01T05:11:26;44.97;40.47;56.18;;
77133;Laerm;26708;50.304;19.028;2023-03-01T05:13:39;55.30;42.23;70.90;;
77133;Laerm;26708;50.304;19.028;2023-03-01T05:15:44;52.86;40.75;66.01;;
77133;Laerm;26708;50.304;19.028;2023-03-01T05:17:50;53.14;41.09;68.14;;
77133;Laerm;26708;50.304;19.028;2023-03-01T05:19:55;55.45;42.11;72.33;;
77133;Laerm;26708;50.304;19.028;2023-03-01T05:22:01;53.63;40.88;69.97;;
77133;Laerm;26708;50.304;19.028;2023-03-01T05:24:09;54.28;41.33;68.13;;
77133;Laerm;26708;50.304;19.028;2023-03-01T05:26:15;55.24;41.40;69.75;;
77133;Laerm;26708;50.304;19.028;2023-03-01T05:28:20;55.56;42.36;69.94;;
77133;Laerm;26708;50.304;19.028;2023-03-01T05:30:28;61.07;42.77;79.15;;
77133;Laerm;26708;50.304;19.028;2023-03-01T05:32:37;56.10;41.35;72.88;;
77133;Laerm;26708;50.304;19.028;2023-03-01T05:34:42;58.29;43.57;73.77;;
77133;Laerm;26708;50.304;19.028;2023-03-01T05:36:49;55.85;43.55;71.74;;
77133;Laerm;26708;50.304;19.028;2023-03-01T05:38:54;54.55;43.82;70.39;;
77133;Laerm;26708;50.304;19.028;2023-03-01T05:40:59;54.77;43.23;66.49;;
77133;Laerm;26708;50.304;19.028;2023-03-01T05:43:04;56.01;43.74;73.10;;
77133;Laerm;26708;50.304;19.028;2023-03-01T05:45:11;55.45;43.66;69.74;;
77133;Laerm;26708;50.304;19.028;2023-03-01T05:47:19;55.52;45.39;67.93;;
77133;Laerm;26708;50.304;19.028;2023-03-01T05:49:24;57.43;44.37;71.25;;
77133;Laerm;26708;50.304;19.028;2023-03-01T05:51:29;52.72;43.34;73.77;;
77133;Laerm;26708;50.304;19.028;2023-03-01T05:53:35;59.18;44.73;71.86;;
77133;Laerm;26708;50.304;19.028;2023-03-01T05:55:41;55.70;42.88;68.03;;
77133;Laerm;26708;50.304;19.028;2023-03-01T05:57:49;53.26;42.56;69.55;;
77133;Laerm;26708;50.304;19.028;2023-03-01T05:59:54;57.32;44.50;71.62;;
77133;Laerm;26708;50.304;19.028;2023-03-01T06:01:59;58.94;44.76;70.49;;
77133;Laerm;26708;50.304;19.028;2023-03-01T06:04:06;55.51;45.08;68.30;;
77133;Laerm;26708;50.304;19.028;2023-03-01T06:06:11;58.25;41.72;71.82;;
77133;Laerm;26708;50.304;19.028;2023-03-01T06:08:16;57.13;41.39;70.63;;
77133;Laerm;26708;50.304;19.028;2023-03-01T06:10:22;54.57;43.32;69.50;;
77133;Laerm;26708;50.304;19.028;2023-03-01T06:12:31;57.89;43.29;69.59;;
77133;Laerm;26708;50.304;19.028;2023-03-01T06:14:36;56.59;43.06;69.91;;
77133;Laerm;26708;50.304;19.028;2023-03-01T06:16:41;57.36;42.67;75.03;;
77133;Laerm;26708;50.304;19.028;2023-03-01T06:18:46;59.64;44.34;81.69;;
77133;Laerm;26708;50.304;19.028;2023-03-01T06:20:56;58.94;43.44;71.11;;
77133;Laerm;26708;50.304;19.028;2023-03-01T06:23:00;64.02;44.36;82.33;;
77133;Laerm;26708;50.304;19.028;2023-03-01T06:25:07;58.69;42.58;75.89;;
77133;Laerm;26708;50.304;19.028;2023-03-01T06:27:12;59.26;43.49;72.30;;
77133;Laerm;26708;50.304;19.028;2023-03-01T06:29:17;56.22;43.70;68.08;;
77133;Laerm;26708;50.304;19.028;2023-03-01T06:31:21;54.72;45.06;67.98;;
77133;Laerm;26708;50.304;19.028;2023-03-01T06:33:27;58.33;49.16;69.33;;
77133;Laerm;26708;50.304;19.028;2023-03-01T06:35:32;57.97;44.23;70.96;;
77133;Laerm;26708;50.304;19.028;2023-03-01T06:37:40;60.64;44.75;78.58;;
77133;Laerm;26708;50.304;19.028;2023-03-01T06:39:45;56.56;45.27;72.97;;
77133;Laerm;26708;50.304;19.028;2023-03-01T06:41:50;59.10;44.78;73.08;;
77133;Laerm;26708;50.304;19.028;2023-03-01T06:43:55;60.33;43.83;72.10;;
77133;Laerm;26708;50.304;19.028;2023-03-01T06:46:04;59.50;44.81;71.59;;
77133;Laerm;26708;50.304;19.028;2023-03-01T06:48:09;56.81;43.94;69.60;;
77133;Laerm;26708;50.304;19.028;2023-03-01T06:50:15;57.01;43.65;69.22;;
77133;Laerm;26708;50.304;19.028;2023-03-01T06:52:21;59.00;44.84;71.21;;
77133;Laerm;26708;50.304;19.028;2023-03-01T06:54:28;52.37;44.00;68.85;;
77133;Laerm;26708;50.304;19.028;2023-03-01T06:56:33;58.56;43.40;70.87;;
77133;Laerm;26708;50.304;19.028;2023-03-01T06:58:38;53.25;43.63;67.42;;
77133;Laerm;26708;50.304;19.028;2023-03-01T07:00:43;56.61;44.16;70.77;;
77133;Laerm;26708;50.304;19.028;2023-03-01T07:02:47;55.86;43.43;68.55;;
77133;Laerm;26708;50.304;19.028;2023-03-01T07:04:52;57.13;44.61;69.11;;
77133;Laerm;26708;50.304;19.028;2023-03-01T07:06:57;61.04;43.74;77.24;;
77133;Laerm;26708;50.304;19.028;2023-03-01T07:09:02;55.76;44.99;67.50;;
77133;Laerm;26708;50.304;19.028;2023-03-01T07:11:10;54.52;42.89;73.08;;
77133;Laerm;26708;50.304;19.028;2023-03-01T07:13:15;53.03;42.79;67.66;;
77133;Laerm;26708;50.304;19.028;2023-03-01T07:15:19;53.09;42.32;67.52;;
77133;Laerm;26708;50.304;19.028;2023-03-01T07:17:25;57.10;43.03;69.29;;
77133;Laerm;26708;50.304;19.028;2023-03-01T07:19:29;56.70;42.81;70.18;;
77133;Laerm;26708;50.304;19.028;2023-03-01T07:21:34;49.92;42.67;63.06;;
77133;Laerm;26708;50.304;19.028;2023-03-01T07:23:41;59.35;43.71;73.43;;
77133;Laerm;26708;50.304;19.028;2023-03-01T07:25:52;53.69;42.64;66.51;;
77133;Laerm;26708;50.304;19.028;2023-03-01T07:28:00;56.90;42.89;70.07;;
77133;Laerm;26708;50.304;19.028;2023-03-01T07:30:08;56.92;43.60;70.81;;
77133;Laerm;26708;50.304;19.028;2023-03-01T07:32:13;61.58;41.85;75.63;;
77133;Laerm;26708;50.304;19.028;2023-03-01T07:34:17;53.96;41.67;66.57;;
77133;Laerm;26708;50.304;19.028;2023-03-01T07:36:23;54.47;42.95;67.01;;
77133;Laerm;26708;50.304;19.028;2023-03-01T07:38:29;56.60;43.41;70.56;;
77133;Laerm;26708;50.304;19.028;2023-03-01T07:40:34;56.49;44.95;67.75;;
77133;Laerm;26708;50.304;19.028;2023-03-01T07:42:40;57.31;43.85;68.89;;
77133;Laerm;26708;50.304;19.028;2023-03-01T07:44:47;54.95;43.50;66.65;;
77133;Laerm;26708;50.304;19.028;2023-03-01T07:46:52;56.91;44.53;68.87;;
77133;Laerm;26708;50.304;19.028;2023-03-01T07:48:58;56.85;43.81;70.42;;
77133;Laerm;26708;50.304;19.028;2023-03-01T07:51:05;56.84;43.31;69.58;;
77133;Laerm;26708;50.304;19.028;2023-03-01T07:53:10;59.17;43.04;70.29;;
77133;Laerm;26708;50.304;19.028;2023-03-01T07:55:16;56.98;42.29;70.68;;
77133;Laerm;26708;50.304;19.028;2023-03-01T07:57:21;56.61;43.00;68.53;;
77133;Laerm;26708;50.304;19.028;2023-03-01T07:59:26;56.69;41.82;74.38;;
77133;Laerm;26708;50.304;19.028;2023-03-01T08:01:34;58.50;46.38;69.96;;
77133;Laerm;26708;50.304;19.028;2023-03-01T08:03:39;57.80;42.74;70.34;;
77133;Laerm;26708;50.304;19.028;2023-03-01T08:05:45;57.83;42.83;70.65;;
77133;Laerm;26708;50.304;19.028;2023-03-01T08:07:50;58.95;41.40;68.76;;
77133;Laerm;26708;50.304;19.028;2023-03-01T08:09:55;55.31;42.64;67.97;;
77133;Laerm;26708;50.304;19.028;2023-03-01T08:11:59;51.93;42.98;65.79;;
77133;Laerm;26708;50.304;19.028;2023-03-01T08:14:06;69.04;44.72;93.01;;
77133;Laerm;26708;50.304;19.028;2023-03-01T08:16:14;62.19;44.58;78.67;;
77133;Laerm;26708;50.304;19.028;2023-03-01T08:18:22;59.70;44.53;70.41;;
77133;Laerm;26708;50.304;19.028;2023-03-01T08:20:27;58.11;44.61;68.02;;
77133;Laerm;26708;50.304;19.028;2023-03-01T08:22:31;60.07;43.25;73.73;;
77133;Laerm;26708;50.304;19.028;2023-03-01T08:24:36;56.43;43.27;70.95;;
77133;Laerm;26708;50.304;19.028;2023-03-01T08:26:41;54.63;41.76;66.68;;
77133;Laerm;26708;50.304;19.028;2023-03-01T08:28:49;81.83;41.82;107.04;;
77133;Laerm;26708;50.304;19.028;2023-03-01T08:30:53;58.38;43.93;70.11;;
77133;Laerm;26708;50.304;19.028;2023-03-01T08:32:59;53.37;41.21;69.92;;
77133;Laerm;26708;50.304;19.028;2023-03-01T08:35:08;57.40;43.91;69.24;;
77133;Laerm;26708;50.304;19.028;2023-03-01T08:37:12;55.10;42.47;71.89;;
77133;Laerm;26708;50.304;19.028;2023-03-01T08:39:19;55.07;41.61;68.73;;
77133;Laerm;26708;50.304;19.028;2023-03-01T08:41:25;58.03;42.78;71.00;;
77133;Laerm;26708;50.304;19.028;2023-03-01T08:43:30;58.57;41.90;73.74;;
77133;Laerm;26708;50.304;19.028;2023-03-01T08:45:35;56.70;42.96;71.74;;
77133;Laerm;26708;50.304;19.028;2023-03-01T08:47:40;57.04;43.11;67.72;;
77133;Laerm;26708;50.304;19.028;2023-03-01T08:49:44;50.90;42.66;66.96;;
77133;Laerm;26708;50.304;19.028;2023-03-01T08:51:52;58.25;43.94;71.28;;
77133;Laerm;26708;50.304;19.028;2023-03-01T08:53:56;55.18;42.52;68.18;;
77133;Laerm;26708;50.304;19.028;2023-03-01T08:56:01;60.43;42.61;75.36;;
77133;Laerm;26708;50.304;19.028;2023-03-01T08:58:07;54.88;41.56;68.66;;
77133;Laerm;26708;50.304;19.028;2023-03-01T09:02:18;58.20;43.45;70.10;;
77133;Laerm;26708;50.304;19.028;2023-03-01T09:04:24;54.51;42.20;69.22;;
77133;Laerm;26708;50.304;19.028;2023-03-01T09:06:30;54.74;40.70;69.30;;
77133;Laerm;26708;50.304;19.028;2023-03-01T09:08:41;54.77;41.22;67.29;;
77133;Laerm;26708;50.304;19.028;2023-03-01T09:10:47;59.01;41.93;74.09;;
77133;Laerm;26708;50.304;19.028;2023-03-01T09:12:52;55.38;43.04;68.08;;
77133;Laerm;26708;50.304;19.028;2023-03-01T09:14:57;54.63;43.04;68.39;;
77133;Laerm;26708;50.304;19.028;2023-03-01T09:17:02;59.74;43.65;72.43;;
77133;Laerm;26708;50.304;19.028;2023-03-01T09:19:07;55.86;42.77;67.61;;
77133;Laerm;26708;50.304;19.028;2023-03-01T09:21:16;56.98;42.85;67.88;;
77133;Laerm;26708;50.304;19.028;2023-03-01T09:23:22;57.93;43.02;69.25;;
77133;Laerm;26708;50.304;19.028;2023-03-01T09:25:29;57.98;42.32;71.92;;
77133;Laerm;26708;50.304;19.028;2023-03-01T09:27:34;59.01;43.56;70.41;;
77133;Laerm;26708;50.304;19.028;2023-03-01T09:29:39;54.81;41.16;69.38;;
77133;Laerm;26708;50.304;19.028;2023-03-01T09:31:45;56.31;44.19;71.41;;
77133;Laerm;26708;50.304;19.028;2023-03-01T09:33:53;57.55;40.89;69.91;;
77133;Laerm;26708;50.304;19.028;2023-03-01T09:36:00;54.26;41.25;68.76;;
77133;Laerm;26708;50.304;19.028;2023-03-01T09:38:05;58.76;43.54;70.28;;
77133;Laerm;26708;50.304;19.028;2023-03-01T09:40:16;58.43;43.69;68.99;;
77133;Laerm;26708;50.304;19.028;2023-03-01T09:42:25;56.93;42.38;68.87;;
77133;Laerm;26708;50.304;19.028;2023-03-01T09:44:43;57.41;42.67;73.53;;
77133;Laerm;26708;50.304;19.028;2023-03-01T09:46:51;56.11;41.32;69.55;;
77133;Laerm;26708;50.304;19.028;2023-03-01T09:49:03;55.48;43.11;66.20;;
77133;Laerm;26708;50.304;19.028;2023-03-01T09:51:18;57.34;42.22;67.35;;
77133;Laerm;26708;50.304;19.028;2023-03-01T09:53:33;56.20;42.18;65.88;;
77133;Laerm;26708;50.304;19.028;2023-03-01T09:55:45;55.58;43.57;67.67;;
77133;Laerm;26708;50.304;19.028;2023-03-01T09:58:02;56.28;44.09;66.75;;
77133;Laerm;26708;50.304;19.028;2023-03-01T10:00:31;57.55;42.84;72.45;;
77133;Laerm;26708;50.304;19.028;2023-03-01T10:02:46;65.27;43.82;78.73;;
77133;Laerm;26708;50.304;19.028;2023-03-01T10:05:05;57.50;43.58;68.08;;
77133;Laerm;26708;50.304;19.028;2023-03-01T10:07:32;56.09;42.30;67.61;;
77133;Laerm;26708;50.304;19.028;2023-03-01T10:09:45;55.33;42.68;69.10;;
77133;Laerm;26708;50.304;19.028;2023-03-01T10:11:55;57.76;41.36;71.32;;
77133;Laerm;26708;50.304;19.028;2023-03-01T10:14:24;58.86;44.17;73.19;;
77133;Laerm;26708;50.304;19.028;2023-03-01T10:16:48;54.36;41.06;68.73;;
77133;Laerm;26708;50.304;19.028;2023-03-01T10:19:02;58.38;42.09;68.83;;
77133;Laerm;26708;50.304;19.028;2023-03-01T10:21:17;54.04;40.94;69.17;;
77133;Laerm;26708;50.304;19.028;2023-03-01T10:23:23;59.06;42.17;70.26;;
77133;Laerm;26708;50.304;19.028;2023-03-01T10:25:49;56.61;42.23;68.39;;
77133;Laerm;26708;50.304;19.028;2023-03-01T10:28:06;59.84;44.58;71.93;;
77133;Laerm;26708;50.304;19.028;2023-03-01T10:30:29;56.74;44.71;67.81;;
77133;Laerm;26708;50.304;19.028;2023-03-01T10:32:36;55.08;43.57;63.85;;
77133;Laerm;26708;50.304;19.028;2023-03-01T10:34:40;55.27;42.17;66.66;;
77133;Laerm;26708;50.304;19.028;2023-03-01T10:36:51;56.31;41.25;68.94;;
77133;Laerm;26708;50.304;19.028;2023-03-01T10:38:57;56.38;41.24;69.95;;
77133;Laerm;26708;50.304;19.028;2023-03-01T10:41:06;54.74;41.38;68.68;;
77133;Laerm;26708;50.304;19.028;2023-03-01T10:43:12;54.61;42.08;68.83;;
77133;Laerm;26708;50.304;19.028;2023-03-01T10:45:32;59.57;40.87;72.95;;
77133;Laerm;26708;50.304;19.028;2023-03-01T10:47:37;52.75;41.21;64.99;;
77133;Laerm;26708;50.304;19.028;2023-03-01T10:50:00;57.64;42.18;69.95;;
77133;Laerm;26708;50.304;19.028;2023-03-01T10:52:21;56.55;44.68;71.05;;
77133;Laerm;26708;50.304;19.028;2023-03-01T10:54:30;57.91;43.82;71.34;;
77133;Laerm;26708;50.304;19.028;2023-03-01T10:56:49;55.72;41.30;66.21;;
77133;Laerm;26708;50.304;19.028;2023-03-01T10:59:00;56.61;42.74;68.95;;
77133;Laerm;26708;50.304;19.028;2023-03-01T11:01:26;67.23;42.92;81.46;;
77133;Laerm;26708;50.304;19.028;2023-03-01T11:03:37;56.45;45.21;67.69;;
77133;Laerm;26708;50.304;19.028;2023-03-01T11:05:57;60.02;43.44;74.63;;
77133;Laerm;26708;50.304;19.028;2023-03-01T11:08:03;57.39;44.38;68.90;;
77133;Laerm;26708;50.304;19.028;2023-03-01T11:10:18;55.65;42.63;73.54;;
77133;Laerm;26708;50.304;19.028;2023-03-01T11:12:25;58.11;41.32;73.95;;
77133;Laerm;26708;50.304;19.028;2023-03-01T11:14:37;57.56;41.70;70.52;;
77133;Laerm;26708;50.304;19.028;2023-03-01T11:16:58;55.42;41.96;67.90;;
77133;Laerm;26708;50.304;19.028;2023-03-01T11:19:24;53.05;42.16;65.91;;
77133;Laerm;26708;50.304;19.028;2023-03-01T11:21:34;56.41;42.05;72.09;;
77133;Laerm;26708;50.304;19.028;2023-03-01T11:23:46;56.43;40.86;70.15;;
77133;Laerm;26708;50.304;19.028;2023-03-01T11:25:58;56.17;41.31;68.84;;
77133;Laerm;26708;50.304;19.028;2023-03-01T11:28:06;58.10;42.17;71.17;;
77133;Laerm;26708;50.304;19.028;2023-03-01T11:30:24;56.75;43.02;67.02;;
77133;Laerm;26708;50.304;19.028;2023-03-01T11:32:45;55.59;41.92;68.57;;
77133;Laerm;26708;50.304;19.028;2023-03-01T11:34:59;58.12;41.74;74.61;;
77133;Laerm;26708;50.304;19.028;2023-03-01T11:37:30;69.41;42.82;89.75;;
77133;Laerm;26708;50.304;19.028;2023-03-01T11:39:49;78.88;43.10;102.86;;
77133;Laerm;26708;50.304;19.028;2023-03-01T11:42:10;57.61;42.04;69.69;;
77133;Laerm;26708;50.304;19.028;2023-03-01T11:44:25;55.95;40.74;70.59;;
77133;Laerm;26708;50.304;19.028;2023-03-01T11:47:08;54.69;42.21;68.86;;
77133;Laerm;26708;50.304;19.028;2023-03-01T11:52:31;57.16;41.47;72.93;;